Terminal Aerodrome Forecast
Issued by NWS Portland, OR

Current Version | Previous Version | Text Only | Print | Product List | Glossary On
Versions: 1 2 3 4 5 6 7 8 9 10 11 12 13 14 15 16 17 18 19 20 21 22 23
000
FTUS46 KPQR 300520
TAFAST
TAF
KAST 300520Z 3006/3106 28009KT P6SM SCT015 BKN035 BKN050
     FM300900 28007KT P6SM -SHRA SCT015 BKN025 BKN045
     FM301600 30012KT P6SM VCSH SCT020 BKN035 BKN060
     FM310000 32010KT P6SM SCT040=

USA.gov is the U.S. government's official web portal to all federal, state and local government web resources and services.